createdAt,value
2022-10-11T01:51:10.183Z,95265.96
2022-10-11T01:53:50.788Z,95265.36
2022-10-11T01:56:29.815Z,95260.59
2022-10-11T01:59:24.959Z,95263.15
2022-10-11T02:02:20.850Z,95265.84
2022-10-11T02:05:03.309Z,95264.98
2022-10-11T02:07:36.971Z,95260.24
2022-10-11T02:10:18.649Z,95257.36
2022-10-11T02:12:53.686Z,95254.89
2022-10-11T02:15:22.262Z,95256.02
2022-10-11T02:17:55.572Z,95253.56
2022-10-11T02:20:26.499Z,95253.83
2022-10-11T02:22:59.921Z,95250.96
2022-10-11T02:25:30.638Z,95247.41
2022-10-11T02:28:01.316Z,95250.61
2022-10-11T02:30:30.797Z,95245.90
2022-10-11T02:32:59.277Z,95248.42
2022-10-11T02:35:30.132Z,95238.64
2022-10-11T02:38:05.849Z,95240.25
2022-10-11T02:40:36.373Z,95240.79
2022-10-11T02:43:05.226Z,95238.94
2022-10-11T02:45:39.359Z,95238.27
2022-10-11T02:48:08.876Z,95236.08
2022-10-11T02:50:35.596Z,95229.52
2022-10-11T02:53:04.820Z,95229.41
2022-10-11T02:55:32.250Z,95227.44
2022-10-11T02:57:59.044Z,95225.53
2022-10-11T03:00:25.771Z,95222.20
2022-10-11T03:02:53.070Z,95220.23
2022-10-11T03:05:20.110Z,95222.34
2022-10-11T03:07:46.823Z,95226.06
2022-10-11T03:10:13.855Z,95226.83
2022-10-11T03:12:40.600Z,95225.45
2022-10-11T03:15:07.764Z,95223.00
2022-10-11T03:17:36.969Z,95225.02
2022-10-11T03:20:06.271Z,95224.68
2022-10-11T03:22:33.037Z,95223.08
2022-10-11T03:25:03.565Z,95218.06
2022-10-11T03:27:31.265Z,95213.80
2022-10-11T03:29:58.117Z,95213.77
2022-10-11T03:32:24.976Z,95211.18
2022-10-11T03:34:51.681Z,95215.73
2022-10-11T03:37:18.473Z,95213.13
2022-10-11T03:39:45.949Z,95210.06
2022-10-11T03:42:13.810Z,95206.45
2022-10-11T03:44:42.403Z,95208.98
2022-10-11T03:47:11.071Z,95203.33
2022-10-11T03:54:16.156Z,95204.55
2022-10-11T04:00:49.979Z,95200.51
2022-10-11T04:00:50.424Z,95202.59
2022-10-11T04:04:23.976Z,95204.20
2022-10-11T04:31:07.024Z,95197.82
2022-10-11T04:33:36.444Z,95196.00
2022-10-11T04:36:03.734Z,95191.55
2022-10-11T04:38:30.678Z,95193.20
2022-10-11T04:41:14.920Z,95192.59
2022-10-11T04:43:41.710Z,95193.98
2022-10-11T04:46:10.155Z,95194.73
2022-10-11T04:48:37.344Z,95189.17
2022-10-11T04:51:04.271Z,95186.38
2022-10-11T04:53:30.985Z,95189.58
2022-10-11T04:56:06.031Z,95185.71
2022-10-11T04:58:34.710Z,95185.02
2022-10-11T05:01:01.981Z,95181.14
2022-10-11T05:03:28.849Z,95177.52
2022-10-11T05:05:55.738Z,95173.41
2022-10-11T05:08:25.686Z,95180.30
2022-10-11T05:11:01.584Z,95179.86
2022-10-11T05:13:29.742Z,95180.30
2022-10-11T05:15:57.238Z,95185.54
2022-10-11T05:18:24.767Z,95189.09
2022-10-11T05:21:20.655Z,95187.75
2022-10-11T05:23:49.018Z,95185.83
2022-10-11T05:26:20.016Z,95183.49
2022-10-11T05:29:19.987Z,95185.41
2022-10-11T05:32:08.926Z,95186.30
2022-10-11T05:41:39.337Z,95189.46
2022-10-11T05:44:50.116Z,95191.14
2022-10-11T06:09:52.614Z,95202.83
2022-10-11T06:15:41.164Z,95210.02
2022-10-11T06:29:30.138Z,95223.07
2022-10-11T06:31:58.886Z,95228.89
2022-10-11T06:34:26.803Z,95231.89
2022-10-11T06:36:59.423Z,95231.15
2022-10-11T06:39:26.102Z,95234.19
2022-10-11T06:41:52.734Z,95236.87
2022-10-11T06:44:19.871Z,95241.02
2022-10-11T06:50:59.747Z,95246.45
2022-10-11T06:53:32.964Z,95246.41
2022-10-11T06:56:28.785Z,95244.92
2022-10-11T07:14:14.155Z,95243.75
2022-10-11T07:30:57.642Z,95240.92
2022-10-11T07:34:06.897Z,95237.13
2022-10-11T07:36:56.626Z,95236.13
2022-10-11T07:40:35.736Z,95237.67
2022-10-11T07:43:20.651Z,95237.74
2022-10-11T07:45:37.659Z,95246.68
2022-10-11T07:45:53.251Z,95242.02
2022-10-11T07:48:20.907Z,95243.47
2022-10-11T07:50:47.775Z,95246.52
2022-10-11T07:53:23.322Z,95249.88
2022-10-11T07:55:50.497Z,95247.41
2022-10-11T08:01:59.252Z,95249.55
2022-10-11T08:04:28.991Z,95251.66
2022-10-11T08:06:58.667Z,95252.73
2022-10-11T08:09:41.264Z,95249.48
2022-10-11T08:12:11.137Z,95250.48
2022-10-11T08:14:37.894Z,95250.73
2022-10-11T08:17:05.137Z,95258.89
2022-10-11T08:19:32.175Z,95253.98
2022-10-11T08:21:59.131Z,95252.65
2022-10-11T08:24:28.278Z,95251.77
2022-10-11T08:29:46.116Z,95252.44
2022-10-11T08:32:12.955Z,95255.71
2022-10-11T08:34:42.354Z,95252.88
2022-10-11T08:37:09.330Z,95252.09
2022-10-11T08:39:38.406Z,95252.79
2022-10-11T08:42:23.772Z,95250.63
2022-10-11T08:45:11.500Z,95247.91
2022-10-11T08:50:31.329Z,95249.68
2022-10-11T08:53:17.574Z,95251.87
2022-10-11T08:56:10.087Z,95254.14
2022-10-11T08:59:10.165Z,95255.48
2022-10-11T09:01:47.567Z,95254.38
2022-10-11T09:04:17.416Z,95252.44
2022-10-11T09:07:10.808Z,95256.05
2022-10-11T09:09:56.396Z,95257.85
2022-10-11T09:12:31.016Z,95261.88
2022-10-11T09:15:17.423Z,95263.08
2022-10-11T09:18:32.364Z,95260.42
2022-10-11T09:21:05.354Z,95261.89
2022-10-11T09:23:48.396Z,95261.88
2022-10-11T09:26:29.415Z,95259.69
2022-10-11T09:29:20.063Z,95261.04
2022-10-11T09:31:52.843Z,95257.57
2022-10-11T09:34:22.420Z,95261.15
2022-10-11T09:37:04.842Z,95256.98
2022-10-11T09:39:44.109Z,95257.33
2022-10-11T09:42:21.062Z,95255.02
2022-10-11T09:44:50.012Z,95254.49
2022-10-11T09:47:24.931Z,95249.39
2022-10-11T09:49:59.730Z,95253.05
2022-10-11T09:52:29.076Z,95250.73
2022-10-11T09:55:02.830Z,95244.62
2022-10-11T09:57:41.991Z,95246.21
2022-10-11T10:00:36.302Z,95241.80
2022-10-11T10:03:40.355Z,95243.01
2022-10-11T10:06:17.471Z,95243.92
2022-10-11T10:08:52.657Z,95240.13
2022-10-11T10:14:26.078Z,95235.20
2022-10-11T10:17:24.775Z,95235.02
2022-10-11T10:19:57.047Z,95234.70
2022-10-11T10:22:30.367Z,95231.09
2022-10-11T10:25:01.413Z,95232.19
2022-10-11T10:27:40.670Z,95231.23
2022-10-11T10:30:13.642Z,95226.58
2022-10-11T10:32:48.743Z,95222.49
2022-10-11T10:35:36.843Z,95225.72
2022-10-11T10:39:01.073Z,95226.32
2022-10-11T10:41:30.547Z,95231.98
2022-10-11T10:44:01.881Z,95232.10
2022-10-11T10:47:03.393Z,95233.36
2022-10-11T10:49:53.299Z,95232.67
2022-10-11T10:52:49.129Z,95235.30
2022-10-11T10:55:25.972Z,95236.27
2022-10-11T10:58:28.268Z,95234.17
2022-10-11T11:01:26.805Z,95232.26
2022-10-11T11:04:15.479Z,95234.41
2022-10-11T11:06:51.289Z,95235.67
2022-10-11T11:09:35.020Z,95234.29
2022-10-11T11:12:20.033Z,95235.86
2022-10-11T11:15:15.358Z,95232.30
2022-10-11T11:18:01.351Z,95235.56
2022-10-11T11:21:07.803Z,95234.36
2022-10-11T11:23:45.367Z,95232.13
2022-10-11T11:26:34.129Z,95234.15
2022-10-11T11:29:12.356Z,95234.00
2022-10-11T11:31:50.689Z,95236.32
2022-10-11T11:34:28.978Z,95229.55
2022-10-11T11:38:01.273Z,95227.20
2022-10-11T11:40:55.191Z,95228.44
2022-10-11T11:43:34.346Z,95230.23
2022-10-11T11:46:21.040Z,95232.23
2022-10-11T11:48:51.805Z,95231.77
2022-10-11T11:51:29.013Z,95228.62
2022-10-11T11:54:19.689Z,95225.36
2022-10-11T11:57:08.792Z,95229.80
2022-10-11T11:59:51.750Z,95229.30
2022-10-11T12:02:44.058Z,95229.81
2022-10-11T12:05:15.551Z,95228.22
2022-10-11T12:08:02.776Z,95230.96
2022-10-11T12:10:34.592Z,95232.88
2022-10-11T12:13:32.405Z,95229.10
2022-10-11T12:16:17.962Z,95224.04
2022-10-11T12:18:57.274Z,95222.88
2022-10-11T12:21:27.025Z,95219.81
2022-10-11T12:23:57.052Z,95224.28
2022-10-11T12:26:39.911Z,95221.77
2022-10-11T12:29:19.012Z,95222.96
2022-10-11T12:31:49.478Z,95225.31
2022-10-11T12:34:26.875Z,95221.13
2022-10-11T12:36:53.645Z,95227.16
2022-10-11T12:39:23.190Z,95228.90
2022-10-11T12:41:56.243Z,95226.90
2022-10-11T12:44:26.523Z,95223.91
2022-10-11T12:47:00.461Z,95226.05
2022-10-11T12:49:31.313Z,95230.34
2022-10-11T12:52:03.882Z,95224.68
2022-10-11T12:55:01.773Z,95228.52
2022-10-11T12:58:10.683Z,95226.33
2022-10-11T13:00:40.403Z,95227.58
2022-10-11T13:03:32.255Z,95225.88
2022-10-11T13:06:54.173Z,95226.38
2022-10-11T13:09:48.944Z,95227.30
2022-10-11T13:12:23.587Z,95227.75
2022-10-11T13:14:59.488Z,95229.02
2022-10-11T13:17:38.722Z,95225.02
2022-10-11T13:20:28.417Z,95224.11
2022-10-11T13:25:42.350Z,95223.92
2022-10-11T13:28:09.510Z,95220.91
2022-10-11T13:30:37.574Z,95221.80
2022-10-11T13:33:17.925Z,95223.00
2022-10-11T13:35:45.033Z,95224.91
2022-10-11T13:38:20.914Z,95224.17
2022-10-11T13:40:50.880Z,95225.48
2022-10-11T13:47:42.002Z,95228.39
2022-10-11T13:50:17.784Z,95228.92
2022-10-11T13:52:59.477Z,95227.11
2022-10-11T13:55:34.796Z,95230.60
2022-10-11T13:58:11.971Z,95232.65
2022-10-11T14:08:47.423Z,95228.78
2022-10-11T14:30:55.594Z,95234.08
2022-10-11T14:49:17.072Z,95246.89
2022-10-11T14:51:45.969Z,95248.74
2022-10-11T15:03:27.388Z,95259.05
2022-10-11T15:05:54.205Z,95260.70
2022-10-11T15:08:56.172Z,95256.29
2022-10-11T15:30:29.350Z,95266.67
2022-10-11T15:36:51.582Z,95263.27
2022-10-11T15:43:35.008Z,95264.70
2022-10-11T15:46:02.645Z,95263.18
2022-10-11T15:48:29.606Z,95262.52
2022-10-11T15:50:56.575Z,95263.17
2022-10-11T15:53:31.383Z,95261.81
2022-10-11T15:56:01.759Z,95264.13
2022-10-11T15:58:31.563Z,95262.14
2022-10-11T16:01:02.099Z,95263.23
2022-10-11T16:03:30.450Z,95262.45
2022-10-11T16:06:02.506Z,95261.92
2022-10-11T16:08:32.052Z,95264.63
2022-10-11T16:11:00.158Z,95272.48
2022-10-11T16:13:26.948Z,95273.98
2022-10-11T16:15:53.772Z,95275.44
2022-10-11T16:18:22.377Z,95275.95
2022-10-11T16:20:52.052Z,95277.33
2022-10-11T16:23:20.929Z,95279.27
2022-10-11T16:26:02.809Z,95278.22
2022-10-11T16:28:30.599Z,95279.61
2022-10-11T16:30:57.430Z,95280.27
2022-10-11T16:33:24.106Z,95282.11
2022-10-11T16:35:50.924Z,95279.70
2022-10-11T16:38:17.736Z,95274.61
2022-10-11T16:40:44.425Z,95277.50
2022-10-11T16:43:11.163Z,95279.89
2022-10-11T16:45:37.908Z,95280.41
2022-10-11T16:48:05.511Z,95286.30
2022-10-11T16:50:36.884Z,95289.62
2022-10-11T16:53:06.162Z,95289.02
2022-10-11T16:55:32.869Z,95292.12
2022-10-11T16:57:59.558Z,95290.62
2022-10-11T17:00:26.293Z,95291.58
2022-10-11T17:02:53.107Z,95297.79
2022-10-11T17:05:19.777Z,95299.36
2022-10-11T17:07:46.486Z,95306.56
2022-10-11T17:10:13.672Z,95309.13
2022-10-11T17:12:40.421Z,95310.50
2022-10-11T17:15:16.748Z,95314.48
2022-10-11T17:17:43.450Z,95321.27
2022-10-11T17:24:34.287Z,95324.23
2022-10-11T17:27:39.032Z,95318.23
2022-10-11T17:30:59.652Z,95320.27
2022-10-11T17:37:30.226Z,95322.27
2022-10-11T17:40:48.219Z,95325.30
2022-10-11T17:43:35.223Z,95326.59
2022-10-11T17:46:05.987Z,95324.66
2022-10-11T17:48:37.205Z,95325.48
2022-10-11T17:51:13.725Z,95326.27
2022-10-11T17:53:41.680Z,95331.67
2022-10-11T17:56:11.403Z,95332.23
2022-10-11T17:58:39.075Z,95335.35
2022-10-11T18:01:12.167Z,95338.45
2022-10-11T18:03:39.198Z,95340.20
2022-10-11T18:06:12.322Z,95341.31
2022-10-11T18:08:40.926Z,95345.55
2022-10-11T18:11:13.944Z,95348.98
2022-10-11T18:13:46.068Z,95352.34
2022-10-11T18:16:15.748Z,95352.19
2022-10-11T18:18:44.204Z,95354.80
2022-10-11T18:21:12.413Z,95355.33
2022-10-11T18:23:39.987Z,95352.09
2022-10-11T18:26:34.018Z,95352.80
2022-10-11T18:29:01.302Z,95351.88
2022-10-11T18:31:32.813Z,95350.03
2022-10-11T18:33:59.957Z,95345.90
2022-10-11T18:36:29.410Z,95349.91
2022-10-11T18:38:58.712Z,95348.00
2022-10-11T18:41:31.946Z,95348.67
2022-10-11T18:44:05.582Z,95350.56
2022-10-11T18:46:33.601Z,95352.36
2022-10-11T18:49:03.708Z,95355.51
2022-10-11T18:51:37.440Z,95354.98
2022-10-11T18:54:06.456Z,95352.17
2022-10-11T18:56:37.020Z,95353.62
2022-10-11T18:59:05.825Z,95351.17
2022-10-11T19:01:35.314Z,95347.68
2022-10-11T19:04:03.827Z,95349.20
2022-10-11T19:06:34.404Z,95346.11
2022-10-11T19:09:01.448Z,95346.39
2022-10-11T19:11:28.966Z,95343.75
2022-10-11T19:14:01.066Z,95346.35
2022-10-11T19:16:30.067Z,95343.66
2022-10-11T19:18:57.961Z,95341.52
2022-10-11T19:21:26.164Z,95345.14
2022-10-11T19:23:55.308Z,95348.33
2022-10-11T19:26:29.529Z,95350.56
2022-10-11T19:29:02.175Z,95347.19
2022-10-11T19:31:30.143Z,95348.26
2022-10-11T19:33:58.076Z,95350.88
2022-10-11T19:36:25.497Z,95349.45
2022-10-11T19:38:56.949Z,95354.32
2022-10-11T19:41:26.075Z,95354.64
2022-10-11T19:43:53.976Z,95352.91
2022-10-11T19:49:10.181Z,95351.46
2022-10-11T19:51:38.699Z,95352.63
2022-10-11T19:54:08.465Z,95354.98
2022-10-11T19:56:36.282Z,95360.63
2022-10-11T19:59:03.639Z,95360.96
2022-10-11T20:01:31.498Z,95363.79
2022-10-11T20:04:00.484Z,95362.42
2022-10-11T20:06:28.552Z,95361.36
2022-10-11T20:09:23.824Z,95359.52
2022-10-11T20:11:43.009Z,95363.59
2022-10-11T20:14:09.703Z,95361.56
2022-10-11T20:16:36.523Z,95365.39
2022-10-11T20:19:04.128Z,95364.92
2022-10-11T20:21:30.964Z,95363.91
2022-10-11T20:24:00.935Z,95367.91
2022-10-11T20:26:29.702Z,95362.39
2022-10-11T20:28:57.754Z,95363.04
2022-10-11T20:31:27.911Z,95362.91
2022-10-11T20:33:57.133Z,95363.64
2022-10-11T20:36:26.955Z,95365.23
2022-10-11T20:38:53.634Z,95368.16
2022-10-11T20:41:23.171Z,95369.89
2022-10-11T20:43:53.086Z,95367.70
2022-10-11T20:46:22.475Z,95369.40
2022-10-11T20:48:52.015Z,95366.15
2022-10-11T20:51:19.700Z,95367.49
2022-10-11T20:53:46.792Z,95373.02
2022-10-11T20:56:15.491Z,95377.02
2022-10-11T20:58:42.988Z,95378.36
2022-10-11T21:01:12.937Z,95379.76
2022-10-11T21:03:40.122Z,95377.53
2022-10-11T21:06:07.253Z,95381.02
2022-10-11T21:08:34.928Z,95380.73
2022-10-11T21:11:02.064Z,95381.56
2022-10-11T21:13:29.192Z,95380.98
2022-10-11T21:15:55.900Z,95383.52
2022-10-11T21:18:22.623Z,95384.46
2022-10-11T21:20:49.273Z,95383.86
2022-10-11T21:23:18.950Z,95381.46
2022-10-11T21:25:45.959Z,95379.39
2022-10-11T21:28:12.675Z,95380.19
2022-10-11T21:30:39.346Z,95380.47
2022-10-11T21:33:06.072Z,95381.38
2022-10-11T21:35:32.730Z,95374.45
2022-10-11T21:37:59.870Z,95373.63
2022-10-11T21:40:27.044Z,95370.48
2022-10-11T21:42:53.754Z,95373.46
2022-10-11T21:45:20.852Z,95372.75
2022-10-11T21:47:47.637Z,95372.27
2022-10-11T21:50:14.362Z,95372.36
2022-10-11T21:52:41.078Z,95373.36
2022-10-11T21:55:07.818Z,95372.36
2022-10-11T21:57:34.613Z,95364.77
2022-10-11T22:00:01.286Z,95363.73
2022-10-11T22:02:28.015Z,95361.16
2022-10-11T22:04:54.707Z,95362.60
2022-10-11T22:07:21.389Z,95361.52
2022-10-11T22:09:48.073Z,95360.45
2022-10-11T22:12:14.806Z,95362.98
2022-10-11T22:14:41.464Z,95360.91
2022-10-11T22:17:08.194Z,95361.86
2022-10-11T22:19:34.865Z,95361.39
2022-10-11T22:22:01.692Z,95360.73
2022-10-11T22:24:29.290Z,95360.83
2022-10-11T22:26:56.060Z,95363.13
2022-10-11T22:29:22.760Z,95363.61
2022-10-11T22:31:49.514Z,95364.16
2022-10-11T22:34:16.204Z,95367.92
2022-10-11T22:36:42.939Z,95367.37
2022-10-11T22:39:10.392Z,95366.46
2022-10-11T22:41:38.064Z,95371.39
2022-10-11T22:44:05.055Z,95373.29
2022-10-11T22:46:31.910Z,95369.58
2022-10-11T22:48:58.620Z,95371.73
2022-10-11T22:51:25.317Z,95369.82
2022-10-11T22:53:52.055Z,95368.30
2022-10-11T22:56:18.772Z,95369.78
2022-10-11T22:58:45.615Z,95370.91
2022-10-11T23:01:15.786Z,95371.48
2022-10-11T23:03:43.494Z,95376.46
2022-10-11T23:06:10.227Z,95376.91
2022-10-11T23:08:37.051Z,95376.70
2022-10-11T23:11:05.970Z,95378.89
2022-10-11T23:13:33.202Z,95377.20
2022-10-11T23:16:00.001Z,95378.86
2022-10-11T23:18:27.524Z,95378.77
2022-10-11T23:20:54.198Z,95375.35
2022-10-11T23:23:20.902Z,95379.14
2022-10-11T23:25:47.506Z,95379.58
2022-10-11T23:28:14.258Z,95380.67
2022-10-11T23:30:41.053Z,95385.86
2022-10-11T23:33:07.710Z,95385.00
2022-10-11T23:35:34.922Z,95388.55
2022-10-11T23:38:01.704Z,95389.92
2022-10-11T23:40:28.431Z,95394.98
2022-10-11T23:42:55.185Z,95395.63
2022-10-11T23:45:21.957Z,95397.55
2022-10-11T23:47:48.580Z,95394.15
2022-10-11T23:50:15.360Z,95395.46
2022-10-11T23:52:42.097Z,95398.17
2022-10-11T23:55:09.159Z,95396.83
2022-10-11T23:57:36.055Z,95393.99
